Aviation Digital Data Service (ADDS)

Output produced by METARs form (1426 UTC 01 April 2015)
found at http://www.aviationweather.gov/adds/metars/
 
KDEN 011127Z 0112/0218 21014KT P6SM FEW140 BKN250 
     FM011400 24010KT P6SM SCT120 BKN200 
     FM011700 28008KT P6SM SCT100 BKN180 
     FM012200 02010KT P6SM BKN080 BKN150 
     PROB30 0122/0202 VRB15G30KT 5SM -TSRA BKN060CB 
     FM020300 01012KT P6SM VCSH SCT080 BKN160 
     FM020800 06010KT P6SM SCT015 OVC040 
     FM021500 05010KT 5SM -SHRASN BR SCT010 OVC020